sensor_id;sensor_type;location;lat;lon;timestamp;pressure;altitude;pressure_sealevel;temperature;humidity
37764;BME280;23602;51.084;7.090;2023-01-31T00:02:12;101008.91;;;3.25;100.00
37764;BME280;23602;51.084;7.090;2023-01-31T00:04:37;100997.88;;;3.20;100.00
37764;BME280;23602;51.084;7.090;2023-01-31T00:07:03;100999.25;;;3.24;100.00
37764;BME280;23602;51.084;7.090;2023-01-31T00:09:30;101008.03;;;3.34;100.00
37764;BME280;23602;51.084;7.090;2023-01-31T00:11:55;100998.53;;;3.32;100.00
37764;BME280;23602;51.084;7.090;2023-01-31T00:14:21;100999.22;;;3.34;100.00
37764;BME280;23602;51.084;7.090;2023-01-31T00:16:49;100995.19;;;3.30;100.00
37764;BME280;23602;51.084;7.090;2023-01-31T00:19:16;101005.50;;;3.42;100.00
37764;BME280;23602;51.084;7.090;2023-01-31T00:21:42;101000.63;;;3.28;100.00
37764;BME280;23602;51.084;7.090;2023-01-31T00:24:12;101013.75;;;3.39;100.00
37764;BME280;23602;51.084;7.090;2023-01-31T00:26:37;101006.06;;;3.36;100.00
37764;BME280;23602;51.084;7.090;2023-01-31T00:29:04;100991.25;;;3.34;100.00
37764;BME280;23602;51.084;7.090;2023-01-31T00:31:31;100999.09;;;3.35;100.00
37764;BME280;23602;51.084;7.090;2023-01-31T00:33:57;101012.78;;;3.40;100.00
37764;BME280;23602;51.084;7.090;2023-01-31T00:36:27;101017.25;;;3.40;100.00
37764;BME280;23602;51.084;7.090;2023-01-31T00:38:56;101017.25;;;3.40;100.00
37764;BME280;23602;51.084;7.090;2023-01-31T00:41:25;101008.75;;;3.27;100.00
37764;BME280;23602;51.084;7.090;2023-01-31T00:43:53;101002.88;;;3.33;100.00
37764;BME280;23602;51.084;7.090;2023-01-31T00:46:19;101005.78;;;3.39;100.00
37764;BME280;23602;51.084;7.090;2023-01-31T00:48:44;101001.19;;;3.32;100.00
37764;BME280;23602;51.084;7.090;2023-01-31T00:51:10;100996.84;;;3.31;100.00
37764;BME280;23602;51.084;7.090;2023-01-31T00:53:35;100985.13;;;3.24;100.00
37764;BME280;23602;51.084;7.090;2023-01-31T00:56:04;101000.06;;;3.34;100.00
37764;BME280;23602;51.084;7.090;2023-01-31T00:58:32;100977.16;;;3.24;100.00
37764;BME280;23602;51.084;7.090;2023-01-31T01:01:12;100982.88;;;3.29;100.00
37764;BME280;23602;51.084;7.090;2023-01-31T01:03:38;100982.47;;;3.24;100.00
37764;BME280;23602;51.084;7.090;2023-01-31T01:06:05;100984.84;;;3.27;100.00
37764;BME280;23602;51.084;7.090;2023-01-31T01:08:31;100985.41;;;3.20;100.00
37764;BME280;23602;51.084;7.090;2023-01-31T01:11:04;100993.50;;;3.29;100.00
37764;BME280;23602;51.084;7.090;2023-01-31T01:13:30;100986.81;;;3.25;100.00
37764;BME280;23602;51.084;7.090;2023-01-31T01:15:55;100980.41;;;3.17;100.00
37764;BME280;23602;51.084;7.090;2023-01-31T01:18:20;101008.19;;;3.33;100.00
37764;BME280;23602;51.084;7.090;2023-01-31T01:20:46;101008.91;;;3.25;100.00
37764;BME280;23602;51.084;7.090;2023-01-31T01:23:12;100998.81;;;3.19;100.00
37764;BME280;23602;51.084;7.090;2023-01-31T01:25:44;100986.25;;;3.11;100.00
37764;BME280;23602;51.084;7.090;2023-01-31T01:28:09;101000.09;;;3.15;100.00
37764;BME280;23602;51.084;7.090;2023-01-31T01:30:37;101005.25;;;3.16;100.00
37764;BME280;23602;51.084;7.090;2023-01-31T01:33:03;101006.13;;;3.07;100.00
37764;BME280;23602;51.084;7.090;2023-01-31T01:35:29;101012.56;;;3.05;100.00
37764;BME280;23602;51.084;7.090;2023-01-31T01:37:55;101010.31;;;3.10;100.00
37764;BME280;23602;51.084;7.090;2023-01-31T01:40:21;101004.28;;;2.98;100.00
37764;BME280;23602;51.084;7.090;2023-01-31T01:42:46;101030.13;;;3.15;100.00
37764;BME280;23602;51.084;7.090;2023-01-31T01:45:13;101011.97;;;3.01;100.00
37764;BME280;23602;51.084;7.090;2023-01-31T01:47:50;101029.59;;;3.12;100.00
37764;BME280;23602;51.084;7.090;2023-01-31T01:50:28;101002.47;;;2.99;100.00
37764;BME280;23602;51.084;7.090;2023-01-31T01:53:02;100992.69;;;2.99;100.00
37764;BME280;23602;51.084;7.090;2023-01-31T01:55:49;101004.72;;;3.03;100.00
37764;BME280;23602;51.084;7.090;2023-01-31T01:58:25;101005.56;;;2.94;100.00
37764;BME280;23602;51.084;7.090;2023-01-31T02:00:52;101005.28;;;2.97;100.00
37764;BME280;23602;51.084;7.090;2023-01-31T02:03:18;101003.34;;;2.90;100.00
37764;BME280;23602;51.084;7.090;2023-01-31T02:06:02;101017.03;;;2.95;100.00
37764;BME280;23602;51.084;7.090;2023-01-31T02:08:34;101024.41;;;2.91;100.00
37764;BME280;23602;51.084;7.090;2023-01-31T02:11:17;101027.75;;;2.93;100.00
37764;BME280;23602;51.084;7.090;2023-01-31T02:13:46;101013.22;;;2.88;100.00
37764;BME280;23602;51.084;7.090;2023-01-31T02:16:13;101024.41;;;2.91;100.00
37764;BME280;23602;51.084;7.090;2023-01-31T02:18:38;101020.50;;;2.86;100.00
37764;BME280;23602;51.084;7.090;2023-01-31T02:38:40;101025.66;;;2.78;100.00
37764;BME280;23602;51.084;7.090;2023-01-31T02:41:25;101020.59;;;2.75;100.00
37764;BME280;23602;51.084;7.090;2023-01-31T02:43:57;101008.59;;;2.61;100.00
37764;BME280;23602;51.084;7.090;2023-01-31T02:47:09;101034.56;;;2.67;100.00
37764;BME280;23602;51.084;7.090;2023-01-31T02:49:47;101034.88;;;2.64;100.00
37764;BME280;23602;51.084;7.090;2023-01-31T02:52:34;101030.69;;;2.62;100.00
37764;BME280;23602;51.084;7.090;2023-01-31T02:56:05;101032.91;;;2.57;100.00
37764;BME280;23602;51.084;7.090;2023-01-31T02:58:18;101019.47;;;2.48;100.00
37764;BME280;23602;51.084;7.090;2023-01-31T03:00:45;101020.16;;;2.50;100.00
37764;BME280;23602;51.084;7.090;2023-01-31T03:03:24;101008.44;;;2.43;100.00
37764;BME280;23602;51.084;7.090;2023-01-31T03:09:17;101008.00;;;2.48;100.00
37764;BME280;23602;51.084;7.090;2023-01-31T03:20:08;101003.00;;;2.54;100.00
37764;BME280;23602;51.084;7.090;2023-01-31T03:22:42;101004.13;;;2.62;100.00
37764;BME280;23602;51.084;7.090;2023-01-31T03:25:14;101008.59;;;2.61;100.00
37764;BME280;23602;51.084;7.090;2023-01-31T03:27:49;100996.88;;;2.54;100.00
37764;BME280;23602;51.084;7.090;2023-01-31T03:30:21;100990.72;;;2.44;100.00
37764;BME280;23602;51.084;7.090;2023-01-31T03:32:54;100996.28;;;2.50;100.00
37764;BME280;23602;51.084;7.090;2023-01-31T03:35:26;101008.28;;;2.54;100.00
37764;BME280;23602;51.084;7.090;2023-01-31T03:38:10;100994.31;;;2.33;100.00
37764;BME280;23602;51.084;7.090;2023-01-31T03:41:03;100991.22;;;2.28;100.00
37764;BME280;23602;51.084;7.090;2023-01-31T03:43:49;100990.38;;;2.28;100.00
37764;BME280;23602;51.084;7.090;2023-01-31T03:46:23;101012.72;;;2.35;100.00
37764;BME280;23602;51.084;7.090;2023-01-31T03:48:53;100997.66;;;2.26;100.00
37764;BME280;23602;51.084;7.090;2023-01-31T03:51:24;100991.22;;;2.28;100.00
37764;BME280;23602;51.084;7.090;2023-01-31T03:53:54;101005.19;;;2.40;100.00
37764;BME280;23602;51.084;7.090;2023-01-31T03:56:36;100995.16;;;2.34;100.00
37764;BME280;23602;51.084;7.090;2023-01-31T03:59:08;100988.97;;;2.24;100.00
37764;BME280;23602;51.084;7.090;2023-01-31T04:01:39;100986.88;;;2.18;100.00
37764;BME280;23602;51.084;7.090;2023-01-31T04:04:10;101000.41;;;2.24;100.00
37764;BME280;23602;51.084;7.090;2023-01-31T04:06:39;100993.41;;;2.14;100.00
37764;BME280;23602;51.084;7.090;2023-01-31T04:09:04;101007.81;;;2.21;100.00
37764;BME280;23602;51.084;7.090;2023-01-31T04:11:36;101004.00;;;2.14;100.00
37764;BME280;23602;51.084;7.090;2023-01-31T04:14:02;100978.28;;;1.95;100.00
37764;BME280;23602;51.084;7.090;2023-01-31T04:16:27;101007.63;;;2.03;100.00
37764;BME280;23602;51.084;7.090;2023-01-31T04:18:53;100977.41;;;1.85;100.00
37764;BME280;23602;51.084;7.090;2023-01-31T04:21:20;100992.66;;;1.92;100.00
37764;BME280;23602;51.084;7.090;2023-01-31T04:23:46;100974.84;;;1.74;100.00
37764;BME280;23602;51.084;7.090;2023-01-31T04:26:12;100978.84;;;1.68;100.00
37764;BME280;23602;51.084;7.090;2023-01-31T04:28:37;100967.72;;;1.65;100.00
37764;BME280;23602;51.084;7.090;2023-01-31T04:31:03;100976.47;;;1.65;100.00
37764;BME280;23602;51.084;7.090;2023-01-31T04:33:29;100981.16;;;1.52;100.00
37764;BME280;23602;51.084;7.090;2023-01-31T04:35:55;100970.50;;;1.43;100.00
37764;BME280;23602;51.084;7.090;2023-01-31T04:38:21;100995.63;;;1.48;100.00
37764;BME280;23602;51.084;7.090;2023-01-31T04:40:48;100985.22;;;1.36;100.00
37764;BME280;23602;51.084;7.090;2023-01-31T04:43:14;100993.56;;;1.31;100.00
37764;BME280;23602;51.084;7.090;2023-01-31T04:45:40;100998.03;;;1.31;100.00
37764;BME280;23602;51.084;7.090;2023-01-31T04:48:06;100984.38;;;1.14;100.00
37764;BME280;23602;51.084;7.090;2023-01-31T04:50:31;100966.41;;;1.08;100.00
37764;BME280;23602;51.084;7.090;2023-01-31T04:52:57;100974.78;;;1.13;100.00
37764;BME280;23602;51.084;7.090;2023-01-31T04:55:22;100978.19;;;1.04;100.00
37764;BME280;23602;51.084;7.090;2023-01-31T04:57:48;100993.31;;;1.13;100.00
37764;BME280;23602;51.084;7.090;2023-01-31T05:00:13;100978.72;;;0.98;100.00
37764;BME280;23602;51.084;7.090;2023-01-31T05:02:40;100984.47;;;1.03;100.00
37764;BME280;23602;51.084;7.090;2023-01-31T05:05:05;100972.97;;;0.93;100.00
37764;BME280;23602;51.084;7.090;2023-01-31T05:07:31;100990.16;;;0.99;100.00
37764;BME280;23602;51.084;7.090;2023-01-31T05:10:00;100982.00;;;0.91;100.00
37764;BME280;23602;51.084;7.090;2023-01-31T05:12:31;100974.81;;;0.82;100.00
37764;BME280;23602;51.084;7.090;2023-01-31T05:14:56;100984.50;;;0.92;100.00
37764;BME280;23602;51.084;7.090;2023-01-31T05:17:22;100986.59;;;0.89;100.00
37764;BME280;23602;51.084;7.090;2023-01-31T05:19:50;100997.34;;;0.97;100.00
37764;BME280;23602;51.084;7.090;2023-01-31T05:22:16;100991.34;;;0.95;100.00
37764;BME280;23602;51.084;7.090;2023-01-31T05:24:43;100980.84;;;0.84;100.00
37764;BME280;23602;51.084;7.090;2023-01-31T05:27:10;100993.28;;;0.93;100.00
37764;BME280;23602;51.084;7.090;2023-01-31T05:29:41;100969.03;;;0.88;100.00
37764;BME280;23602;51.084;7.090;2023-01-31T05:32:09;100975.22;;;0.98;100.00
37764;BME280;23602;51.084;7.090;2023-01-31T05:34:35;100974.06;;;0.91;100.00
37764;BME280;23602;51.084;7.090;2023-01-31T05:37:01;100977.88;;;0.98;100.00
37764;BME280;23602;51.084;7.090;2023-01-31T05:39:27;100977.16;;;0.96;100.00
37764;BME280;23602;51.084;7.090;2023-01-31T05:41:53;100985.88;;;1.07;100.00
37764;BME280;23602;51.084;7.090;2023-01-31T05:44:18;100985.03;;;1.07;100.00
37764;BME280;23602;51.084;7.090;2023-01-31T05:46:48;100982.13;;;1.10;100.00
37764;BME280;23602;51.084;7.090;2023-01-31T05:49:14;100987.38;;;1.21;100.00
37764;BME280;23602;51.084;7.090;2023-01-31T05:51:41;100969.25;;;1.16;100.00
37764;BME280;23602;51.084;7.090;2023-01-31T05:54:21;100972.34;;;1.21;100.00
37764;BME280;23602;51.084;7.090;2023-01-31T06:00:07;100966.00;;;1.34;100.00
37764;BME280;23602;51.084;7.090;2023-01-31T06:02:33;100949.25;;;1.33;100.00
37764;BME280;23602;51.084;7.090;2023-01-31T06:04:58;100984.06;;;1.49;100.00
37764;BME280;23602;51.084;7.090;2023-01-31T06:07:24;100952.94;;;1.42;100.00
37764;BME280;23602;51.084;7.090;2023-01-31T06:09:50;100977.00;;;1.59;100.00
37764;BME280;23602;51.084;7.090;2023-01-31T06:12:16;100972.41;;;1.61;100.00
37764;BME280;23602;51.084;7.090;2023-01-31T06:14:44;100964.72;;;1.58;100.00
37764;BME280;23602;51.084;7.090;2023-01-31T06:17:10;100960.88;;;1.62;100.00
37764;BME280;23602;51.084;7.090;2023-01-31T06:19:36;100967.25;;;1.60;100.00
37764;BME280;23602;51.084;7.090;2023-01-31T06:22:03;100961.81;;;1.61;100.00
37764;BME280;23602;51.084;7.090;2023-01-31T06:24:28;100952.19;;;1.60;100.00
37764;BME280;23602;51.084;7.090;2023-01-31T06:26:55;100953.63;;;1.64;100.00
37764;BME280;23602;51.084;7.090;2023-01-31T06:29:20;100960.63;;;1.75;100.00
37764;BME280;23602;51.084;7.090;2023-01-31T06:31:45;100941.91;;;1.67;100.00
37764;BME280;23602;51.084;7.090;2023-01-31T06:34:11;100966.66;;;1.86;100.00
37764;BME280;23602;51.084;7.090;2023-01-31T06:36:36;100952.81;;;1.73;100.00
37764;BME280;23602;51.084;7.090;2023-01-31T06:39:02;100976.84;;;1.91;100.00
37764;BME280;23602;51.084;7.090;2023-01-31T06:41:28;100971.00;;;1.87;100.00
37764;BME280;23602;51.084;7.090;2023-01-31T06:43:54;100969.31;;;1.86;100.00
37764;BME280;23602;51.084;7.090;2023-01-31T06:46:20;100971.03;;;1.97;100.00
37764;BME280;23602;51.084;7.090;2023-01-31T06:48:46;100973.84;;;1.96;100.00
37764;BME280;23602;51.084;7.090;2023-01-31T06:51:15;100964.16;;;1.85;100.00
37764;BME280;23602;51.084;7.090;2023-01-31T06:53:40;100963.16;;;1.86;100.00
37764;BME280;23602;51.084;7.090;2023-01-31T06:56:06;100976.75;;;1.92;100.00
37764;BME280;23602;51.084;7.090;2023-01-31T06:58:35;100952.28;;;1.79;100.00
37764;BME280;23602;51.084;7.090;2023-01-31T07:01:05;100976.84;;;1.91;100.00
37764;BME280;23602;51.084;7.090;2023-01-31T07:03:31;100990.88;;;2.03;100.00
37764;BME280;23602;51.084;7.090;2023-01-31T07:05:57;101000.38;;;2.05;100.00
37764;BME280;23602;51.084;7.090;2023-01-31T07:08:22;100982.59;;;1.96;100.00
37764;BME280;23602;51.084;7.090;2023-01-31T07:10:47;101000.38;;;2.15;100.00
37764;BME280;23602;51.084;7.090;2023-01-31T07:13:13;100983.19;;;2.09;100.00
37764;BME280;23602;51.084;7.090;2023-01-31T07:15:39;100987.84;;;2.17;100.00
37764;BME280;23602;51.084;7.090;2023-01-31T07:18:04;101003.22;;;2.32;100.00
37764;BME280;23602;51.084;7.090;2023-01-31T07:20:30;100983.38;;;2.27;100.00
37764;BME280;23602;51.084;7.090;2023-01-31T07:22:56;100978.66;;;2.30;100.00
37764;BME280;23602;51.084;7.090;2023-01-31T07:25:22;100959.25;;;2.30;100.00
37764;BME280;23602;51.084;7.090;2023-01-31T07:27:48;100990.16;;;2.50;100.00
37764;BME280;23602;51.084;7.090;2023-01-31T07:30:13;100968.38;;;2.46;100.00
37764;BME280;23602;51.084;7.090;2023-01-31T07:32:39;100962.06;;;2.47;100.00
37764;BME280;23602;51.084;7.090;2023-01-31T07:35:04;100970.75;;;2.59;100.00
37764;BME280;23602;51.084;7.090;2023-01-31T07:37:30;100945.47;;;2.55;100.00
37764;BME280;23602;51.084;7.090;2023-01-31T07:39:55;100943.38;;;2.59;100.00
37764;BME280;23602;51.084;7.090;2023-01-31T07:42:21;100935.00;;;2.63;100.00
37764;BME280;23602;51.084;7.090;2023-01-31T07:44:46;100914.75;;;2.62;100.00
37764;BME280;23602;51.084;7.090;2023-01-31T07:47:12;100924.66;;;2.60;100.00
37764;BME280;23602;51.084;7.090;2023-01-31T07:49:37;100944.91;;;2.71;100.00
37764;BME280;23602;51.084;7.090;2023-01-31T07:52:05;100948.84;;;2.76;100.00
37764;BME280;23602;51.084;7.090;2023-01-31T07:54:30;100946.31;;;2.84;100.00
37764;BME280;23602;51.084;7.090;2023-01-31T07:56:56;100955.66;;;2.88;100.00
37764;BME280;23602;51.084;7.090;2023-01-31T07:59:27;100916.31;;;2.74;100.00
37764;BME280;23602;51.084;7.090;2023-01-31T08:01:56;100913.88;;;2.90;100.00
37764;BME280;23602;51.084;7.090;2023-01-31T08:04:39;100931.47;;;3.10;100.00
37764;BME280;23602;51.084;7.090;2023-01-31T08:07:05;100919.88;;;3.11;100.00
37764;BME280;23602;51.084;7.090;2023-01-31T08:09:31;100928.66;;;3.22;100.00
37764;BME280;23602;51.084;7.090;2023-01-31T08:11:57;100919.16;;;3.19;100.00
37764;BME280;23602;51.084;7.090;2023-01-31T08:14:23;100908.94;;;3.24;100.00
37764;BME280;23602;51.084;7.090;2023-01-31T08:16:56;100908.94;;;3.24;100.00
37764;BME280;23602;51.084;7.090;2023-01-31T08:19:21;100900.13;;;3.24;100.00
37764;BME280;23602;51.084;7.090;2023-01-31T08:21:48;100890.03;;;3.37;100.00
37764;BME280;23602;51.084;7.090;2023-01-31T08:24:14;100875.16;;;3.44;100.00
37764;BME280;23602;51.084;7.090;2023-01-31T08:26:41;100875.84;;;3.55;100.00
37764;BME280;23602;51.084;7.090;2023-01-31T08:29:06;100878.72;;;3.62;100.00
37764;BME280;23602;51.084;7.090;2023-01-31T08:31:35;100848.03;;;3.50;100.00
37764;BME280;23602;51.084;7.090;2023-01-31T08:34:00;100860.81;;;3.64;100.00
37764;BME280;23602;51.084;7.090;2023-01-31T08:36:29;100847.22;;;3.67;100.00
37764;BME280;23602;51.084;7.090;2023-01-31T08:38:56;100834.56;;;3.61;100.00
37764;BME280;23602;51.084;7.090;2023-01-31T08:41:23;100836.75;;;3.65;100.00
37764;BME280;23602;51.084;7.090;2023-01-31T08:43:49;100844.00;;;3.73;100.00
37764;BME280;23602;51.084;7.090;2023-01-31T08:46:14;100847.34;;;3.75;100.00
37764;BME280;23602;51.084;7.090;2023-01-31T08:48:40;100818.28;;;3.64;100.00
37764;BME280;23602;51.084;7.090;2023-01-31T08:51:11;100817.47;;;3.63;100.00
37764;BME280;23602;51.084;7.090;2023-01-31T08:53:41;100844.47;;;3.86;100.00
37764;BME280;23602;51.084;7.090;2023-01-31T08:56:09;100822.84;;;3.71;100.00
37764;BME280;23602;51.084;7.090;2023-01-31T08:58:37;100826.38;;;3.72;100.00
37764;BME280;23602;51.084;7.090;2023-01-31T09:01:07;100823.81;;;3.80;100.00
37764;BME280;23602;51.084;7.090;2023-01-31T09:03:43;100827.81;;;3.84;100.00
37764;BME280;23602;51.084;7.090;2023-01-31T09:06:13;100823.22;;;3.86;100.00
37764;BME280;23602;51.084;7.090;2023-01-31T09:08:41;100808.69;;;3.80;100.00
37764;BME280;23602;51.084;7.090;2023-01-31T09:11:07;100800.72;;;3.80;100.00
37764;BME280;23602;51.084;7.090;2023-01-31T09:13:33;100811.56;;;3.87;100.00
37764;BME280;23602;51.084;7.090;2023-01-31T09:16:01;100810.81;;;3.95;100.00
37764;BME280;23602;51.084;7.090;2023-01-31T09:18:28;100796.84;;;3.93;100.00
37764;BME280;23602;51.084;7.090;2023-01-31T09:20:53;100805.47;;;4.04;100.00
37764;BME280;23602;51.084;7.090;2023-01-31T09:23:19;100783.84;;;3.90;100.00
37764;BME280;23602;51.084;7.090;2023-01-31T09:26:08;100786.38;;;3.91;100.00
37764;BME280;23602;51.084;7.090;2023-01-31T09:31:56;100795.09;;;3.83;100.00
37764;BME280;23602;51.084;7.090;2023-01-31T09:37:32;100812.59;;;3.86;100.00
37764;BME280;23602;51.084;7.090;2023-01-31T09:42:54;100807.41;;;3.84;100.00
37764;BME280;23602;51.084;7.090;2023-01-31T09:45:29;100823.34;;;4.02;100.00
37764;BME280;23602;51.084;7.090;2023-01-31T09:48:12;100831.59;;;4.09;100.00
37764;BME280;23602;51.084;7.090;2023-01-31T09:53:43;100830.44;;;3.94;100.00
37764;BME280;23602;51.084;7.090;2023-01-31T09:56:40;100846.53;;;4.10;100.00
37764;BME280;23602;51.084;7.090;2023-01-31T10:00:11;100846.53;;;4.10;100.00
37764;BME280;23602;51.084;7.090;2023-01-31T10:02:57;100853.75;;;4.17;100.00
37764;BME280;23602;51.084;7.090;2023-01-31T10:05:36;100817.06;;;4.03;100.00
37764;BME280;23602;51.084;7.090;2023-01-31T10:11:06;100829.22;;;4.06;100.00
37764;BME280;23602;51.084;7.090;2023-01-31T10:13:46;100831.81;;;4.15;100.00
37764;BME280;23602;51.084;7.090;2023-01-31T10:16:37;100831.13;;;4.13;100.00
37764;BME280;23602;51.084;7.090;2023-01-31T10:19:16;100849.00;;;4.21;100.00
37764;BME280;23602;51.084;7.090;2023-01-31T10:21:57;100838.94;;;4.15;100.00
37764;BME280;23602;51.084;7.090;2023-01-31T10:27:06;100847.84;;;4.23;100.00
37764;BME280;23602;51.084;7.090;2023-01-31T10:29:41;100821.03;;;4.17;100.00
37764;BME280;23602;51.084;7.090;2023-01-31T10:32:39;100817.53;;;4.16;100.00
37764;BME280;23602;51.084;7.090;2023-01-31T10:35:43;100815.09;;;4.23;100.00
37764;BME280;23602;51.084;7.090;2023-01-31T10:38:57;100858.66;;;4.39;100.00
37764;BME280;23602;51.084;7.090;2023-01-31T10:41:34;100826.03;;;4.20;100.00
37764;BME280;23602;51.084;7.090;2023-01-31T10:44:10;100809.75;;;4.23;100.00
37764;BME280;23602;51.084;7.090;2023-01-31T10:46:40;100813.34;;;4.31;100.00
37764;BME280;23602;51.084;7.090;2023-01-31T10:49:12;100797.69;;;4.28;100.00
37764;BME280;23602;51.084;7.090;2023-01-31T10:58:00;100802.31;;;4.44;100.00
37764;BME280;23602;51.084;7.090;2023-01-31T11:00:29;100777.63;;;4.34;100.00
37764;BME280;23602;51.084;7.090;2023-01-31T11:03:01;100773.50;;;4.39;100.00
37764;BME280;23602;51.084;7.090;2023-01-31T11:05:29;100785.19;;;4.46;100.00
37764;BME280;23602;51.084;7.090;2023-01-31T11:11:23;100764.75;;;4.47;100.00
37764;BME280;23602;51.084;7.090;2023-01-31T11:14:04;100751.28;;;4.48;100.00
37764;BME280;23602;51.084;7.090;2023-01-31T11:22:34;100741.34;;;4.84;100.00
37764;BME280;23602;51.084;7.090;2023-01-31T11:25:14;100703.91;;;4.78;100.00
37764;BME280;23602;51.084;7.090;2023-01-31T11:27:59;100686.94;;;4.87;100.00
37764;BME280;23602;51.084;7.090;2023-01-31T11:30:33;100653.44;;;4.76;100.00
37764;BME280;23602;51.084;7.090;2023-01-31T11:33:04;100676.69;;;5.00;100.00
37764;BME280;23602;51.084;7.090;2023-01-31T11:35:55;100692.72;;;5.08;100.00
37764;BME280;23602;51.084;7.090;2023-01-31T11:38:33;100659.34;;;4.88;100.00
37764;BME280;23602;51.084;7.090;2023-01-31T11:41:01;100681.34;;;4.98;100.00
37764;BME280;23602;51.084;7.090;2023-01-31T11:47:01;100635.38;;;4.88;100.00
37764;BME280;23602;51.084;7.090;2023-01-31T11:49:41;100652.53;;;5.01;100.00
37764;BME280;23602;51.084;7.090;2023-01-31T11:52:27;100639.09;;;5.03;100.00
37764;BME280;23602;51.084;7.090;2023-01-31T11:54:56;100627.06;;;4.99;100.00
37764;BME280;23602;51.084;7.090;2023-01-31T11:57:30;100612.56;;;4.93;100.00
37764;BME280;23602;51.084;7.090;2023-01-31T11:59:58;100606.09;;;4.96;100.00
37764;BME280;23602;51.084;7.090;2023-01-31T12:02:36;100600.09;;;4.94;100.00
37764;BME280;23602;51.084;7.090;2023-01-31T12:05:12;100613.44;;;5.02;100.00
37764;BME280;23602;51.084;7.090;2023-01-31T12:07:55;100624.94;;;5.10;100.00
37764;BME280;23602;51.084;7.090;2023-01-31T12:10:45;100635.13;;;5.15;100.00
37764;BME280;23602;51.084;7.090;2023-01-31T12:13:20;100610.78;;;5.10;100.00
37764;BME280;23602;51.084;7.090;2023-01-31T12:16:04;100586.78;;;5.02;100.00
37764;BME280;23602;51.084;7.090;2023-01-31T12:25:02;100605.97;;;5.22;100.00
37764;BME280;23602;51.084;7.090;2023-01-31T12:27:39;100615.00;;;5.21;100.00
37764;BME280;23602;51.084;7.090;2023-01-31T12:38:28;100607.81;;;5.29;100.00
37764;BME280;23602;51.084;7.090;2023-01-31T12:58:37;100592.63;;;5.13;100.00
37764;BME280;23602;51.084;7.090;2023-01-31T13:01:11;100601.66;;;5.21;100.00
37764;BME280;23602;51.084;7.090;2023-01-31T13:06:31;100576.16;;;5.10;100.00
37764;BME280;23602;51.084;7.090;2023-01-31T13:09:08;100578.84;;;5.18;100.00
37764;BME280;23602;51.084;7.090;2023-01-31T13:12:01;100581.19;;;5.21;100.00
37764;BME280;23602;51.084;7.090;2023-01-31T13:14:39;100598.84;;;5.30;100.00
37764;BME280;23602;51.084;7.090;2023-01-31T13:17:16;100588.16;;;5.14;100.00
37764;BME280;23602;51.084;7.090;2023-01-31T13:22:58;100580.47;;;5.11;100.00
37764;BME280;23602;51.084;7.090;2023-01-31T13:28:43;100633.78;;;5.19;100.00
37764;BME280;23602;51.084;7.090;2023-01-31T13:31:28;100607.50;;;5.16;100.00
37764;BME280;23602;51.084;7.090;2023-01-31T13:34:09;100608.19;;;5.26;100.00
37764;BME280;23602;51.084;7.090;2023-01-31T13:37:15;100599.13;;;5.11;100.00
37764;BME280;23602;51.084;7.090;2023-01-31T13:42:38;100616.63;;;5.22;100.00
37764;BME280;23602;51.084;7.090;2023-01-31T13:48:04;100615.09;;;5.11;100.00
37764;BME280;23602;51.084;7.090;2023-01-31T13:50:45;100628.09;;;5.06;100.00
37764;BME280;23602;51.084;7.090;2023-01-31T13:53:34;100653.09;;;5.13;100.00
37764;BME280;23602;51.084;7.090;2023-01-31T13:56:09;100654.91;;;5.13;100.00
37764;BME280;23602;51.084;7.090;2023-01-31T13:58:56;100625.72;;;4.95;100.00
37764;BME280;23602;51.084;7.090;2023-01-31T14:01:29;100684.75;;;5.16;100.00
37764;BME280;23602;51.084;7.090;2023-01-31T14:09:35;100712.69;;;5.12;100.00
37764;BME280;23602;51.084;7.090;2023-01-31T14:12:29;100713.84;;;5.09;100.00
37764;BME280;23602;51.084;7.090;2023-01-31T14:15:48;100726.50;;;5.07;100.00
37764;BME280;23602;51.084;7.090;2023-01-31T14:18:47;100708.91;;;4.89;100.00
37764;BME280;23602;51.084;7.090;2023-01-31T14:24:02;100711.09;;;4.85;100.00
37764;BME280;23602;51.084;7.090;2023-01-31T14:29:40;100723.97;;;4.98;100.00
37764;BME280;23602;51.084;7.090;2023-01-31T14:32:22;100722.91;;;4.91;100.00
37764;BME280;23602;51.084;7.090;2023-01-31T14:52:09;100768.19;;;4.91;100.00
37764;BME280;23602;51.084;7.090;2023-01-31T14:55:02;100803.88;;;5.06;100.00
37764;BME280;23602;51.084;7.090;2023-01-31T14:57:41;100767.38;;;4.90;100.00
37764;BME280;23602;51.084;7.090;2023-01-31T15:00:20;100800.53;;;5.04;100.00
37764;BME280;23602;51.084;7.090;2023-01-31T15:06:08;100819.88;;;5.06;100.00
37764;BME280;23602;51.084;7.090;2023-01-31T15:08:38;100801.19;;;4.98;100.00
37764;BME280;23602;51.084;7.090;2023-01-31T15:11:34;100795.50;;;4.93;100.00
37764;BME280;23602;51.084;7.090;2023-01-31T15:13:59;100792.84;;;4.93;100.00
37764;BME280;23602;51.084;7.090;2023-01-31T15:16:35;100818.16;;;4.97;100.00
37764;BME280;23602;51.084;7.090;2023-01-31T15:19:19;100847.88;;;5.10;100.00
37764;BME280;23602;51.084;7.090;2023-01-31T15:21:52;100850.53;;;5.10;100.00
37764;BME280;23602;51.084;7.090;2023-01-31T15:24:51;100831.47;;;4.97;100.00
37764;BME280;23602;51.084;7.090;2023-01-31T15:27:34;100849.81;;;5.00;100.00
37764;BME280;23602;51.084;7.090;2023-01-31T15:30:21;100873.19;;;5.14;100.00
37764;BME280;23602;51.084;7.090;2023-01-31T15:32:55;100842.75;;;4.91;100.00
37764;BME280;23602;51.084;7.090;2023-01-31T15:35:46;100848.81;;;5.01;100.00
37764;BME280;23602;51.084;7.090;2023-01-31T15:41:22;100878.53;;;5.14;100.00
37764;BME280;23602;51.084;7.090;2023-01-31T15:47:23;100868.81;;;5.05;100.00
37764;BME280;23602;51.084;7.090;2023-01-31T15:49:53;100855.28;;;4.98;100.00
37764;BME280;23602;51.084;7.090;2023-01-31T15:52:22;100874.34;;;5.11;100.00